Time;durP1;ratioP1;P1;durP2;ratioP2;P2;SDS_P1;SDS_P2;PMS_P1;PMS_P2;Temp;Humidity;BMP_temperature;BMP_pressure;BME280_temperature;BME280_humidity;BME280_pressure;Samples;Min_cycle;Max_cycle;Signal;HPM_P1;HPM_P2
2022/07/20 00:00:49;;;;;;;7.30;5.23;;;;;;;;;;4933070;28;20430;-56
2022/07/20 00:03:15;;;;;;;6.00;5.40;;;;;;;;;;4945111;28;20478;-56
2022/07/20 00:05:42;;;;;;;8.40;5.70;;;;;;;;;;4934083;28;20445;-57
2022/07/20 00:08:08;;;;;;;9.43;5.50;;;;;;;;;;4949952;28;20451;-56
2022/07/20 00:13:19;;;;;;;8.00;5.97;;;;;;;;;;4946468;28;21034;-56
2022/07/20 00:15:45;;;;;;;6.67;5.20;;;;;;;;;;4923865;28;20813;-56
2022/07/20 00:18:11;;;;;;;7.63;5.00;;;;;;;;;;4941406;28;20486;-58
2022/07/20 00:20:48;;;;;;;5.87;4.70;;;;;;;;;;4927656;28;20598;-58
2022/07/20 00:23:16;;;;;;;8.67;5.83;;;;;;;;;;4942531;28;20472;-57
2022/07/20 00:25:42;;;;;;;6.20;5.03;;;;;;;;;;4901505;28;20846;-55
2022/07/20 00:28:17;;;;;;;6.47;5.60;;;;;;;;;;4948934;28;20585;-57
2022/07/20 00:30:47;;;;;;;7.37;5.60;;;;;;;;;;4953219;28;20458;-56
2022/07/20 00:33:14;;;;;;;9.43;5.70;;;;;;;;;;4937603;28;20837;-57
2022/07/20 00:35:41;;;;;;;9.00;6.00;;;;;;;;;;4956224;28;20462;-58
2022/07/20 00:38:07;;;;;;;8.33;5.00;;;;;;;;;;4946504;28;20569;-57
2022/07/20 00:40:43;;;;;;;16.07;6.60;;;;;;;;;;4948603;28;20549;-57
2022/07/20 00:43:14;;;;;;;5.73;5.23;;;;;;;;;;4938058;28;20454;-57
2022/07/20 00:45:40;;;;;;;8.93;6.63;;;;;;;;;;4944907;28;20518;-56
2022/07/20 00:48:06;;;;;;;7.60;5.53;;;;;;;;;;4934796;28;20266;-56
2022/07/20 00:50:32;;;;;;;9.00;5.40;;;;;;;;;;4946985;28;20498;-58
2022/07/20 00:52:59;;;;;;;6.60;5.17;;;;;;;;;;4925763;28;20458;-57
2022/07/20 00:55:25;;;;;;;7.43;5.00;;;;;;;;;;4941987;28;20446;-58
2022/07/20 00:57:51;;;;;;;6.77;5.83;;;;;;;;;;4904758;28;20481;-57
2022/07/20 01:00:30;;;;;;;5.93;4.97;;;;;;;;;;4950037;28;20443;-58
2022/07/20 01:03:03;;;;;;;9.03;6.00;;;;;;;;;;4935874;28;20466;-56
2022/07/20 01:05:29;;;;;;;5.80;4.97;;;;;;;;;;4948943;28;20450;-57
2022/07/20 01:07:55;;;;;;;6.43;5.60;;;;;;;;;;4927279;28;20514;-58
2022/07/20 01:10:21;;;;;;;6.70;5.50;;;;;;;;;;4945207;28;20215;-57
2022/07/20 01:12:48;;;;;;;7.50;6.10;;;;;;;;;;4937128;28;20223;-58
2022/07/20 01:15:14;;;;;;;8.23;5.80;;;;;;;;;;4946173;28;21048;-56
2022/07/20 01:17:40;;;;;;;10.33;5.10;;;;;;;;;;4925957;28;20578;-56
2022/07/20 01:20:06;;;;;;;10.40;5.37;;;;;;;;;;4953017;28;20431;-56
2022/07/20 01:22:32;;;;;;;8.37;5.07;;;;;;;;;;4940590;28;20192;-55
2022/07/20 01:25:00;;;;;;;8.43;5.20;;;;;;;;;;4950228;28;20796;-56
2022/07/20 01:27:35;;;;;;;8.00;5.80;;;;;;;;;;4918571;28;20854;-57
2022/07/20 01:30:02;;;;;;;4.97;4.43;;;;;;;;;;4941318;28;20932;-56
2022/07/20 01:32:28;;;;;;;6.47;5.23;;;;;;;;;;4925270;28;20454;-55
2022/07/20 01:34:55;;;;;;;8.90;5.20;;;;;;;;;;4947670;28;20449;-59
2022/07/20 01:37:21;;;;;;;7.80;5.80;;;;;;;;;;4941682;28;20696;-58
2022/07/20 01:39:46;;;;;;;7.13;4.67;;;;;;;;;;4948768;28;20536;-57
2022/07/20 01:42:13;;;;;;;6.57;4.70;;;;;;;;;;4947311;28;21178;-56
2022/07/20 01:44:39;;;;;;;6.30;4.77;;;;;;;;;;4944403;28;20190;-56
2022/07/20 01:47:17;;;;;;;8.57;5.90;;;;;;;;;;4942297;28;20439;-57
2022/07/20 01:49:48;;;;;;;9.10;6.07;;;;;;;;;;4939364;28;20987;-57
2022/07/20 01:52:14;;;;;;;9.07;6.70;;;;;;;;;;4934582;28;20431;-55
2022/07/20 01:54:40;;;;;;;6.43;5.10;;;;;;;;;;4935052;28;20451;-57
2022/07/20 01:57:54;;;;;;;7.60;4.97;;;;;;;;;;4943211;28;20308;-56
2022/07/20 02:00:20;;;;;;;7.43;5.90;;;;;;;;;;4893363;28;20443;-57
2022/07/20 02:02:46;;;;;;;5.50;4.77;;;;;;;;;;4949993;28;20483;-57
2022/07/20 02:05:15;;;;;;;16.33;6.00;;;;;;;;;;4951429;28;20447;-57
2022/07/20 02:07:42;;;;;;;6.37;5.77;;;;;;;;;;4966201;28;20450;-57
2022/07/20 02:10:09;;;;;;;5.13;4.30;;;;;;;;;;4934851;28;23073;-56
2022/07/20 02:12:35;;;;;;;7.90;5.10;;;;;;;;;;4944555;28;20434;-61
2022/07/20 02:15:01;;;;;;;6.90;5.13;;;;;;;;;;4937198;28;20442;-56
2022/07/20 02:17:27;;;;;;;7.90;5.30;;;;;;;;;;4939721;28;20536;-57
2022/07/20 02:20:05;;;;;;;8.67;5.00;;;;;;;;;;4945344;28;20441;-57
2022/07/20 02:22:31;;;;;;;5.20;4.70;;;;;;;;;;4939370;28;20998;-57
2022/07/20 02:25:08;;;;;;;6.63;4.90;;;;;;;;;;4946235;28;20455;-57
2022/07/20 02:27:36;;;;;;;7.70;4.90;;;;;;;;;;4948747;28;20434;-57
2022/07/20 02:30:03;;;;;;;14.50;4.80;;;;;;;;;;4928953;28;20459;-58
2022/07/20 02:32:29;;;;;;;7.13;5.63;;;;;;;;;;4924990;28;21006;-56
2022/07/20 02:35:04;;;;;;;5.87;5.07;;;;;;;;;;4945661;28;20497;-57
2022/07/20 02:37:33;;;;;;;5.67;4.90;;;;;;;;;;4947413;28;20489;-57
2022/07/20 02:40:05;;;;;;;7.03;5.37;;;;;;;;;;4938398;28;20449;-56
2022/07/20 02:42:31;;;;;;;6.73;5.60;;;;;;;;;;4935532;28;20490;-56
2022/07/20 02:45:00;;;;;;;5.87;4.80;;;;;;;;;;4945300;28;20461;-57
2022/07/20 02:47:27;;;;;;;7.13;5.80;;;;;;;;;;4946152;28;20195;-56
2022/07/20 02:49:53;;;;;;;8.13;4.70;;;;;;;;;;4940905;28;20439;-58
2022/07/20 02:52:19;;;;;;;8.23;5.10;;;;;;;;;;4930084;28;20270;-56
2022/07/20 02:54:45;;;;;;;8.57;6.13;;;;;;;;;;4951712;28;20495;-56
2022/07/20 02:57:11;;;;;;;9.00;5.10;;;;;;;;;;4948679;28;20565;-55
2022/07/20 02:59:37;;;;;;;6.00;5.33;;;;;;;;;;4947664;28;20853;-56
2022/07/20 03:02:03;;;;;;;8.90;5.00;;;;;;;;;;4920158;28;20214;-56
2022/07/20 03:04:37;;;;;;;7.03;4.67;;;;;;;;;;4945078;28;20486;-57
2022/07/20 03:07:03;;;;;;;7.73;4.60;;;;;;;;;;4931453;28;20439;-56
2022/07/20 03:09:31;;;;;;;8.17;5.07;;;;;;;;;;4944412;28;20443;-56
2022/07/20 03:11:57;;;;;;;7.30;5.60;;;;;;;;;;4941508;28;20554;-56
2022/07/20 03:14:23;;;;;;;5.97;5.37;;;;;;;;;;4946066;28;20443;-55
2022/07/20 03:16:51;;;;;;;6.17;5.53;;;;;;;;;;4942143;28;20490;-56
2022/07/20 03:19:17;;;;;;;7.23;5.30;;;;;;;;;;4948490;28;20518;-56
2022/07/20 03:21:43;;;;;;;7.53;5.07;;;;;;;;;;4926882;28;20443;-56
2022/07/20 03:24:09;;;;;;;9.00;6.00;;;;;;;;;;4948789;28;20434;-56
2022/07/20 03:26:35;;;;;;;9.07;5.73;;;;;;;;;;4937965;28;20255;-56
2022/07/20 03:29:01;;;;;;;9.20;5.80;;;;;;;;;;4947256;28;20426;-58
2022/07/20 03:31:27;;;;;;;10.80;6.43;;;;;;;;;;4899814;28;24255;-57
2022/07/20 03:33:55;;;;;;;7.13;5.47;;;;;;;;;;4942388;28;20435;-56
2022/07/20 03:36:29;;;;;;;10.40;5.70;;;;;;;;;;4913422;28;20185;-58
2022/07/20 03:38:55;;;;;;;9.23;5.67;;;;;;;;;;4947059;28;20454;-57
2022/07/20 03:41:21;;;;;;;6.97;6.00;;;;;;;;;;4921325;28;21525;-57
2022/07/20 03:43:48;;;;;;;11.43;5.50;;;;;;;;;;4946366;28;20445;-56
2022/07/20 03:46:17;;;;;;;6.23;4.87;;;;;;;;;;4939058;28;20215;-56
2022/07/20 03:48:43;;;;;;;7.10;4.97;;;;;;;;;;4946343;28;21031;-56
2022/07/20 03:51:09;;;;;;;8.50;5.47;;;;;;;;;;4945991;28;20538;-57
2022/07/20 03:53:35;;;;;;;6.27;5.40;;;;;;;;;;4950340;28;20454;-57
2022/07/20 03:56:05;;;;;;;5.87;5.27;;;;;;;;;;4939060;28;20187;-57
2022/07/20 03:58:34;;;;;;;5.10;4.60;;;;;;;;;;4915225;28;20471;-57
2022/07/20 04:01:02;;;;;;;7.10;5.13;;;;;;;;;;4946371;28;20438;-61
2022/07/20 04:03:28;;;;;;;7.97;5.90;;;;;;;;;;4928314;28;20466;-56
2022/07/20 04:05:54;;;;;;;9.50;5.70;;;;;;;;;;4947434;28;20284;-58
2022/07/20 04:08:20;;;;;;;6.13;5.20;;;;;;;;;;4933395;28;20241;-57
2022/07/20 04:10:46;;;;;;;6.53;5.27;;;;;;;;;;4948003;28;20446;-58
2022/07/20 04:13:12;;;;;;;8.30;5.10;;;;;;;;;;4924800;28;20316;-58
2022/07/20 04:15:38;;;;;;;10.50;5.70;;;;;;;;;;4946256;28;20210;-58
2022/07/20 04:18:04;;;;;;;7.50;5.53;;;;;;;;;;4943784;28;20932;-57
2022/07/20 04:20:30;;;;;;;10.07;6.30;;;;;;;;;;4943346;28;20461;-56
2022/07/20 04:22:56;;;;;;;6.77;5.13;;;;;;;;;;4945394;28;20504;-56
2022/07/20 04:25:22;;;;;;;11.33;6.10;;;;;;;;;;4944447;28;20191;-56
2022/07/20 04:27:49;;;;;;;4.90;4.40;;;;;;;;;;4925176;28;20449;-56
2022/07/20 04:30:15;;;;;;;10.33;5.20;;;;;;;;;;4939010;28;20454;-57
2022/07/20 04:32:43;;;;;;;8.13;5.27;;;;;;;;;;4911661;28;22379;-58
2022/07/20 04:35:09;;;;;;;8.13;5.53;;;;;;;;;;4938707;28;20447;-57
2022/07/20 04:37:35;;;;;;;9.00;4.97;;;;;;;;;;4941040;28;20517;-59
2022/07/20 04:40:02;;;;;;;8.37;5.83;;;;;;;;;;4937690;28;21166;-57
2022/07/20 04:42:28;;;;;;;7.70;6.30;;;;;;;;;;4939127;28;20435;-58
2022/07/20 04:44:54;;;;;;;7.23;5.47;;;;;;;;;;4932370;28;20453;-56
2022/07/20 04:47:27;;;;;;;7.70;5.53;;;;;;;;;;4945756;28;20446;-57
2022/07/20 04:49:55;;;;;;;7.97;5.87;;;;;;;;;;4941933;28;20465;-57
2022/07/20 04:52:21;;;;;;;6.97;5.83;;;;;;;;;;4942636;28;20431;-57
2022/07/20 04:54:47;;;;;;;11.53;6.10;;;;;;;;;;4925142;28;20446;-57
2022/07/20 04:57:13;;;;;;;6.77;6.07;;;;;;;;;;4928459;28;20861;-60
2022/07/20 04:59:39;;;;;;;8.73;7.93;;;;;;;;;;4938985;28;20683;-58
2022/07/20 05:02:06;;;;;;;8.03;6.20;;;;;;;;;;4921989;28;20465;-58
2022/07/20 05:04:32;;;;;;;6.87;5.73;;;;;;;;;;4924052;28;20470;-58
2022/07/20 05:06:58;;;;;;;8.60;6.70;;;;;;;;;;4918303;28;21219;-57
2022/07/20 05:09:25;;;;;;;7.77;5.70;;;;;;;;;;4938821;28;20439;-58
2022/07/20 05:11:51;;;;;;;8.90;5.93;;;;;;;;;;4931908;28;20266;-57
2022/07/20 05:14:17;;;;;;;9.37;6.13;;;;;;;;;;4913548;28;20453;-57
2022/07/20 05:16:43;;;;;;;8.40;5.83;;;;;;;;;;4947635;28;20478;-57
2022/07/20 05:19:11;;;;;;;10.23;5.67;;;;;;;;;;4946508;28;20187;-59
2022/07/20 05:21:37;;;;;;;9.03;6.10;;;;;;;;;;4949586;28;20442;-58
2022/07/20 05:24:03;;;;;;;9.10;5.57;;;;;;;;;;4928899;28;20454;-56
2022/07/20 05:26:29;;;;;;;7.53;6.40;;;;;;;;;;4952469;28;20223;-57
2022/07/20 05:28:55;;;;;;;10.43;6.73;;;;;;;;;;4943609;28;20483;-58
2022/07/20 05:31:21;;;;;;;11.20;6.47;;;;;;;;;;4947456;28;20431;-58
2022/07/20 05:33:47;;;;;;;8.50;5.80;;;;;;;;;;4938909;28;20443;-57
2022/07/20 05:36:27;;;;;;;12.80;6.00;;;;;;;;;;4948365;28;20191;-60
2022/07/20 05:39:00;;;;;;;7.43;6.07;;;;;;;;;;4962366;28;20549;-57
2022/07/20 05:41:27;;;;;;;11.80;6.40;;;;;;;;;;4936881;28;20820;-57
2022/07/20 05:44:06;;;;;;;9.60;6.70;;;;;;;;;;4954354;28;20439;-58
2022/07/20 05:46:37;;;;;;;10.93;6.57;;;;;;;;;;4945325;28;20474;-58
2022/07/20 05:49:03;;;;;;;16.73;6.20;;;;;;;;;;4940751;28;20530;-59
2022/07/20 05:51:29;;;;;;;9.63;6.50;;;;;;;;;;4939287;28;20450;-59
2022/07/20 05:54:13;;;;;;;7.83;6.10;;;;;;;;;;4959073;28;20450;-60
2022/07/20 05:56:45;;;;;;;6.67;5.20;;;;;;;;;;4950017;28;20518;-58
2022/07/20 05:59:25;;;;;;;8.10;6.80;;;;;;;;;;4955502;28;20465;-58
2022/07/20 06:01:52;;;;;;;9.73;7.03;;;;;;;;;;4944415;28;20443;-57
2022/07/20 06:04:33;;;;;;;8.27;5.40;;;;;;;;;;4930225;28;21085;-59
2022/07/20 06:07:05;;;;;;;7.30;5.80;;;;;;;;;;4948280;28;20454;-59
2022/07/20 06:09:31;;;;;;;12.97;7.17;;;;;;;;;;4950960;28;20688;-59
2022/07/20 06:11:58;;;;;;;8.80;6.63;;;;;;;;;;4949479;28;20485;-60
2022/07/20 06:14:42;;;;;;;11.37;6.20;;;;;;;;;;4953564;28;20447;-57
2022/07/20 06:17:10;;;;;;;16.07;7.17;;;;;;;;;;4951335;28;20472;-59
2022/07/20 06:19:36;;;;;;;8.00;6.20;;;;;;;;;;4931665;28;21235;-57
2022/07/20 06:22:02;;;;;;;9.20;5.83;;;;;;;;;;4953350;28;20956;-57
2022/07/20 06:24:35;;;;;;;9.33;7.00;;;;;;;;;;4937208;28;21130;-58
2022/07/20 06:27:28;;;;;;;11.00;6.73;;;;;;;;;;4944567;28;20511;-59
2022/07/20 06:29:54;;;;;;;9.87;6.77;;;;;;;;;;4946392;28;20527;-58
2022/07/20 06:32:20;;;;;;;7.77;6.33;;;;;;;;;;4944198;28;20718;-59
2022/07/20 06:34:47;;;;;;;12.00;6.67;;;;;;;;;;4946868;28;20522;-58
2022/07/20 06:37:13;;;;;;;6.13;5.30;;;;;;;;;;4943793;28;20483;-62
2022/07/20 06:39:39;;;;;;;8.50;6.90;;;;;;;;;;4947473;28;20442;-57
2022/07/20 06:42:05;;;;;;;13.43;6.60;;;;;;;;;;4958720;28;20542;-60
2022/07/20 06:44:32;;;;;;;11.43;6.00;;;;;;;;;;4944885;28;20446;-59
2022/07/20 06:46:58;;;;;;;8.03;6.83;;;;;;;;;;4922593;28;20450;-59
2022/07/20 06:49:25;;;;;;;11.57;7.43;;;;;;;;;;4940823;28;20439;-57
2022/07/20 06:51:51;;;;;;;6.53;5.73;;;;;;;;;;4936345;28;20863;-59
2022/07/20 06:54:21;;;;;;;8.53;6.40;;;;;;;;;;4940175;28;20447;-59
2022/07/20 06:56:51;;;;;;;11.53;6.87;;;;;;;;;;4935290;28;20242;-59
2022/07/20 06:59:18;;;;;;;10.97;7.13;;;;;;;;;;4932898;28;20424;-58
2022/07/20 07:01:44;;;;;;;7.13;6.43;;;;;;;;;;4940882;28;20441;-58
2022/07/20 07:04:10;;;;;;;8.97;6.80;;;;;;;;;;4946152;28;20486;-58
2022/07/20 07:06:36;;;;;;;8.50;6.50;;;;;;;;;;4922624;28;20446;-58
2022/07/20 07:09:02;;;;;;;7.77;6.73;;;;;;;;;;4945598;28;20476;-60
2022/07/20 07:11:28;;;;;;;10.70;6.63;;;;;;;;;;4904405;28;20454;-59
2022/07/20 07:13:53;;;;;;;10.60;7.80;;;;;;;;;;4940965;28;20519;-59
2022/07/20 07:16:19;;;;;;;10.17;6.67;;;;;;;;;;4915624;28;20465;-59
2022/07/20 07:18:45;;;;;;;10.97;7.23;;;;;;;;;;4954451;28;20222;-59
2022/07/20 07:21:12;;;;;;;11.37;7.70;;;;;;;;;;4928313;28;20529;-59
2022/07/20 07:23:38;;;;;;;9.20;7.30;;;;;;;;;;4947908;28;20434;-59
2022/07/20 07:26:04;;;;;;;12.33;7.60;;;;;;;;;;4917519;28;20446;-58
2022/07/20 07:28:31;;;;;;;12.53;7.47;;;;;;;;;;4937841;28;20522;-57
2022/07/20 07:31:04;;;;;;;14.53;7.23;;;;;;;;;;4938803;28;20807;-57
2022/07/20 07:33:30;;;;;;;9.57;8.50;;;;;;;;;;4943011;28;20450;-58
2022/07/20 07:35:56;;;;;;;10.23;7.33;;;;;;;;;;4927109;28;20442;-58
2022/07/20 07:38:22;;;;;;;11.50;6.87;;;;;;;;;;4948531;28;20486;-58
2022/07/20 07:40:48;;;;;;;7.83;6.90;;;;;;;;;;4941137;28;20445;-58
2022/07/20 07:43:14;;;;;;;10.37;7.10;;;;;;;;;;4948965;28;20910;-58
2022/07/20 07:45:40;;;;;;;12.60;7.30;;;;;;;;;;4934155;28;20442;-57
2022/07/20 07:48:10;;;;;;;8.10;6.63;;;;;;;;;;4946751;28;20439;-57
2022/07/20 07:50:37;;;;;;;10.47;7.20;;;;;;;;;;4926489;28;20491;-59
2022/07/20 07:53:04;;;;;;;11.20;7.63;;;;;;;;;;4967987;28;20435;-59
2022/07/20 07:56:00;;;;;;;11.20;5.90;;;;;;;;;;4951765;28;20446;-57
2022/07/20 07:58:25;;;;;;;10.87;7.33;;;;;;;;;;4954798;28;21127;-60
2022/07/20 08:00:51;;;;;;;10.70;6.77;;;;;;;;;;4936613;28;20505;-58
2022/07/20 08:03:17;;;;;;;8.03;7.23;;;;;;;;;;4955840;28;20230;-58
2022/07/20 08:05:43;;;;;;;17.27;6.80;;;;;;;;;;4929076;28;20463;-60
2022/07/20 08:08:10;;;;;;;10.90;7.63;;;;;;;;;;4949904;28;20509;-59
2022/07/20 08:10:36;;;;;;;9.97;7.40;;;;;;;;;;4932517;28;20443;-59
2022/07/20 08:13:03;;;;;;;7.00;6.30;;;;;;;;;;4953992;28;20439;-59
2022/07/20 08:15:29;;;;;;;8.60;6.53;;;;;;;;;;4932664;28;20743;-58
2022/07/20 08:17:55;;;;;;;7.93;7.13;;;;;;;;;;4953180;28;20575;-59
2022/07/20 08:20:29;;;;;;;12.43;7.80;;;;;;;;;;4898705;28;20474;-59
2022/07/20 08:22:57;;;;;;;8.47;7.67;;;;;;;;;;4947986;28;20470;-58
2022/07/20 08:25:23;;;;;;;8.70;6.90;;;;;;;;;;4933264;28;20439;-58
2022/07/20 08:27:50;;;;;;;9.00;6.73;;;;;;;;;;4947486;28;20641;-58
2022/07/20 08:30:21;;;;;;;10.63;7.10;;;;;;;;;;4944952;28;21056;-60
2022/07/20 08:32:55;;;;;;;8.43;7.53;;;;;;;;;;4948617;28;20485;-59
2022/07/20 08:35:23;;;;;;;13.63;7.97;;;;;;;;;;4946261;28;20594;-58
2022/07/20 08:37:49;;;;;;;8.43;7.47;;;;;;;;;;4929506;28;20610;-58
2022/07/20 08:40:15;;;;;;;8.10;7.30;;;;;;;;;;4938399;28;20462;-57
2022/07/20 08:42:41;;;;;;;8.20;6.67;;;;;;;;;;4948523;28;20457;-57
2022/07/20 08:45:09;;;;;;;7.10;6.40;;;;;;;;;;4936104;28;20191;-59
2022/07/20 08:47:42;;;;;;;8.03;7.23;;;;;;;;;;4949135;28;20447;-59
2022/07/20 08:50:09;;;;;;;7.10;5.77;;;;;;;;;;4926271;28;20443;-57
2022/07/20 08:52:35;;;;;;;9.43;7.60;;;;;;;;;;4948569;28;20449;-58
2022/07/20 08:55:01;;;;;;;10.00;7.17;;;;;;;;;;4924096;28;21177;-58
2022/07/20 08:57:28;;;;;;;7.00;6.33;;;;;;;;;;4943607;28;20739;-58
2022/07/20 09:00:15;;;;;;;8.80;7.17;;;;;;;;;;4950901;28;20524;-59
2022/07/20 09:02:56;;;;;;;8.90;6.40;;;;;;;;;;4943501;28;20980;-58
2022/07/20 09:05:23;;;;;;;10.60;6.77;;;;;;;;;;4922109;28;20466;-58
2022/07/20 09:07:51;;;;;;;12.83;6.10;;;;;;;;;;4947362;28;20803;-59
2022/07/20 09:10:18;;;;;;;7.53;6.43;;;;;;;;;;4923278;28;20593;-58
2022/07/20 09:13:12;;;;;;;6.90;5.70;;;;;;;;;;4947476;28;20458;-58
2022/07/20 09:15:49;;;;;;;6.93;6.23;;;;;;;;;;4944344;28;20474;-59
2022/07/20 09:18:21;;;;;;;7.07;6.10;;;;;;;;;;4944643;28;20497;-57
2022/07/20 09:21:13;;;;;;;11.37;6.80;;;;;;;;;;4907599;28;20449;-58
2022/07/20 09:23:41;;;;;;;7.93;6.30;;;;;;;;;;4948674;28;20457;-56
2022/07/20 09:26:18;;;;;;;7.07;6.37;;;;;;;;;;4945591;28;20451;-58
2022/07/20 09:28:48;;;;;;;7.60;5.77;;;;;;;;;;4954368;28;20426;-58
2022/07/20 09:31:18;;;;;;;10.60;6.90;;;;;;;;;;4934544;28;20565;-59
2022/07/20 09:33:49;;;;;;;7.10;6.40;;;;;;;;;;4957394;28;20442;-60
2022/07/20 09:36:16;;;;;;;7.17;6.20;;;;;;;;;;4951910;28;20534;-59
2022/07/20 09:38:42;;;;;;;7.70;6.43;;;;;;;;;;4952299;28;20486;-60
2022/07/20 09:41:41;;;;;;;7.93;6.97;;;;;;;;;;4901383;28;20466;-60
2022/07/20 09:44:10;;;;;;;6.47;5.87;;;;;;;;;;4950305;28;20459;-58
2022/07/20 09:46:37;;;;;;;15.97;6.90;;;;;;;;;;4923737;28;20456;-58
2022/07/20 09:49:04;;;;;;;7.20;6.50;;;;;;;;;;4951578;28;20443;-59
2022/07/20 09:51:38;;;;;;;7.70;6.40;;;;;;;;;;4933895;28;21042;-59
2022/07/20 09:54:12;;;;;;;6.60;6.00;;;;;;;;;;4950711;28;20509;-59
2022/07/20 09:56:56;;;;;;;7.73;6.93;;;;;;;;;;4939577;28;20562;-58
2022/07/20 09:59:51;;;;;;;10.80;7.30;;;;;;;;;;4945512;28;21014;-58
2022/07/20 10:02:29;;;;;;;10.07;6.90;;;;;;;;;;4923993;28;20472;-59
2022/07/20 10:04:56;;;;;;;10.23;6.53;;;;;;;;;;4944712;28;20550;-59
2022/07/20 10:07:36;;;;;;;8.57;6.60;;;;;;;;;;4948714;28;20439;-58
2022/07/20 10:10:07;;;;;;;7.53;6.50;;;;;;;;;;4949609;28;20583;-58
2022/07/20 10:12:48;;;;;;;7.83;7.13;;;;;;;;;;4927855;28;20997;-59
2022/07/20 10:15:17;;;;;;;10.40;7.50;;;;;;;;;;4945925;28;20954;-60
2022/07/20 10:17:46;;;;;;;6.97;6.30;;;;;;;;;;4942909;28;20485;-57
2022/07/20 10:20:29;;;;;;;7.03;6.43;;;;;;;;;;4947877;28;20460;-59
2022/07/20 10:23:14;;;;;;;7.77;6.97;;;;;;;;;;4904905;28;20995;-58
2022/07/20 10:25:39;;;;;;;9.97;6.60;;;;;;;;;;4941635;28;20505;-58
2022/07/20 10:28:25;;;;;;;9.33;7.73;;;;;;;;;;4920072;28;20502;-58
2022/07/20 10:30:55;;;;;;;8.40;7.30;;;;;;;;;;4945776;28;20187;-59
2022/07/20 10:33:30;;;;;;;7.33;6.63;;;;;;;;;;4943820;28;20449;-59
2022/07/20 10:39:20;;;;;;;7.80;6.93;;;;;;;;;;4939807;28;21021;-59
2022/07/20 10:42:12;;;;;;;7.70;6.60;;;;;;;;;;4945966;28;20814;-59
2022/07/20 10:44:38;;;;;;;8.67;6.60;;;;;;;;;;4930652;28;20436;-58
2022/07/20 10:47:05;;;;;;;7.57;6.57;;;;;;;;;;4938515;28;20446;-63
2022/07/20 10:49:59;;;;;;;8.83;7.17;;;;;;;;;;4928317;28;20987;-59
2022/07/20 10:52:29;;;;;;;8.27;7.03;;;;;;;;;;4939777;28;20545;-59
2022/07/20 10:54:55;;;;;;;7.17;6.57;;;;;;;;;;4937768;28;20931;-56
2022/07/20 10:57:39;;;;;;;7.80;7.10;;;;;;;;;;4929463;28;20483;-59
2022/07/20 11:00:09;;;;;;;7.20;6.60;;;;;;;;;;4935747;28;20442;-57
2022/07/20 11:02:36;;;;;;;10.73;6.97;;;;;;;;;;4913668;28;20434;-58
2022/07/20 11:05:01;;;;;;;8.70;6.70;;;;;;;;;;4942564;28;20471;-57
2022/07/20 11:07:28;;;;;;;7.57;6.63;;;;;;;;;;4922302;28;21237;-58
2022/07/20 11:09:54;;;;;;;10.67;6.87;;;;;;;;;;4941857;28;20549;-58
2022/07/20 11:12:45;;;;;;;9.30;7.30;;;;;;;;;;4914450;28;20470;-59
2022/07/20 11:15:16;;;;;;;7.60;6.80;;;;;;;;;;4940391;28;20512;-59
2022/07/20 11:17:42;;;;;;;10.47;7.50;;;;;;;;;;4920077;28;20486;-59
2022/07/20 11:20:08;;;;;;;9.00;8.10;;;;;;;;;;4946486;28;20438;-58
2022/07/20 11:22:35;;;;;;;8.63;7.73;;;;;;;;;;4914093;28;20556;-58
2022/07/20 11:25:01;;;;;;;8.73;7.33;;;;;;;;;;4929436;28;20438;-59
2022/07/20 11:27:28;;;;;;;9.03;8.20;;;;;;;;;;4906129;28;20462;-58
2022/07/20 11:29:54;;;;;;;9.40;6.93;;;;;;;;;;4908659;28;20538;-59
2022/07/20 11:32:27;;;;;;;8.03;7.20;;;;;;;;;;4933913;28;20438;-59
2022/07/20 11:35:11;;;;;;;9.03;6.90;;;;;;;;;;4940148;28;20442;-59
2022/07/20 11:37:37;;;;;;;10.13;8.80;;;;;;;;;;4888441;28;20482;-60
2022/07/20 11:40:14;;;;;;;8.07;7.20;;;;;;;;;;4912840;28;20442;-59
2022/07/20 11:42:42;;;;;;;7.63;7.03;;;;;;;;;;4902701;28;20198;-59
2022/07/20 11:45:09;;;;;;;7.67;6.97;;;;;;;;;;4916864;28;21787;-59
2022/07/20 11:47:35;;;;;;;8.37;7.57;;;;;;;;;;4899187;28;20982;-61
2022/07/20 11:50:08;;;;;;;8.07;7.37;;;;;;;;;;4910677;28;20438;-59
2022/07/20 11:52:40;;;;;;;8.13;7.33;;;;;;;;;;4909271;28;20443;-58
2022/07/20 11:55:06;;;;;;;8.83;8.10;;;;;;;;;;4915578;28;20521;-61
2022/07/20 11:57:33;;;;;;;8.70;7.90;;;;;;;;;;4895935;28;20512;-59
2022/07/20 11:59:59;;;;;;;8.43;7.67;;;;;;;;;;4931628;28;20524;-59
2022/07/20 12:02:25;;;;;;;14.80;8.60;;;;;;;;;;4895411;28;20446;-60
2022/07/20 12:04:51;;;;;;;8.63;7.93;;;;;;;;;;4913091;28;20730;-59
2022/07/20 12:10:16;;;;;;;9.33;8.23;;;;;;;;;;4904264;28;20453;-59
2022/07/20 12:12:45;;;;;;;9.10;8.30;;;;;;;;;;4916150;28;20455;-58
2022/07/20 12:15:11;;;;;;;10.03;7.70;;;;;;;;;;4909038;28;20188;-58
2022/07/20 12:17:46;;;;;;;9.17;8.47;;;;;;;;;;4912511;28;20497;-59
2022/07/20 12:20:13;;;;;;;10.17;9.30;;;;;;;;;;4902959;28;20183;-59
2022/07/20 12:22:39;;;;;;;9.40;8.60;;;;;;;;;;4916920;28;22276;-60
2022/07/20 12:25:06;;;;;;;11.03;9.20;;;;;;;;;;4918011;28;20447;-59
2022/07/20 12:27:34;;;;;;;9.20;8.30;;;;;;;;;;4912929;28;20827;-60
2022/07/20 12:30:00;;;;;;;10.20;9.13;;;;;;;;;;4900250;28;21727;-60
2022/07/20 12:32:36;;;;;;;9.20;8.47;;;;;;;;;;4918397;28;20490;-59
2022/07/20 12:35:06;;;;;;;10.10;9.20;;;;;;;;;;4910406;28;20434;-59
2022/07/20 12:40:47;;;;;;;9.93;9.03;;;;;;;;;;4902429;28;21448;-58
2022/07/20 12:43:36;;;;;;;10.63;9.73;;;;;;;;;;4904062;28;20442;-59
2022/07/20 12:46:07;;;;;;;10.83;9.73;;;;;;;;;;4889418;28;20578;-60
2022/07/20 12:48:42;;;;;;;11.87;10.57;;;;;;;;;;4915781;28;20459;-60
2022/07/20 12:51:11;;;;;;;12.77;11.67;;;;;;;;;;4899855;28;20458;-62
2022/07/20 12:53:38;;;;;;;13.60;11.40;;;;;;;;;;4917739;28;20470;-60
2022/07/20 12:56:05;;;;;;;12.50;11.40;;;;;;;;;;4923460;28;20450;-58
2022/07/20 12:58:31;;;;;;;12.80;11.60;;;;;;;;;;4892697;28;20547;-58
2022/07/20 13:00:58;;;;;;;12.80;11.70;;;;;;;;;;4918566;28;20745;-58
2022/07/20 13:03:24;;;;;;;16.37;13.07;;;;;;;;;;4901504;28;20465;-58
2022/07/20 13:08:36;;;;;;;16.10;14.43;;;;;;;;;;4906667;28;20851;-60
2022/07/20 13:11:03;;;;;;;23.73;16.10;;;;;;;;;;4906759;28;21664;-57
2022/07/20 13:13:29;;;;;;;17.03;15.33;;;;;;;;;;4920745;28;20454;-59
2022/07/20 13:15:55;;;;;;;20.27;15.30;;;;;;;;;;4895915;28;20435;-60
2022/07/20 13:18:28;;;;;;;20.03;15.43;;;;;;;;;;4923988;28;20481;-59
2022/07/20 13:20:58;;;;;;;20.63;18.60;;;;;;;;;;4896110;28;20434;-59
2022/07/20 13:23:25;;;;;;;19.80;16.57;;;;;;;;;;4928057;28;21279;-60
2022/07/20 13:25:51;;;;;;;18.67;16.70;;;;;;;;;;4888815;28;20751;-59
2022/07/20 13:28:28;;;;;;;18.23;16.43;;;;;;;;;;4917723;28;20179;-58
2022/07/20 13:34:00;;;;;;;21.17;17.10;;;;;;;;;;4917922;28;20579;-58
2022/07/20 13:36:26;;;;;;;19.77;17.77;;;;;;;;;;4905313;28;20533;-59
2022/07/20 13:38:52;;;;;;;17.47;15.83;;;;;;;;;;4925249;28;20502;-60
2022/07/20 13:41:54;;;;;;;20.07;18.10;;;;;;;;;;4914642;28;20438;-58
2022/07/20 13:44:22;;;;;;;20.13;17.27;;;;;;;;;;4895228;28;21123;-58
2022/07/20 13:46:48;;;;;;;19.23;17.43;;;;;;;;;;4885292;28;20750;-59
2022/07/20 13:49:14;;;;;;;20.17;17.20;;;;;;;;;;4918016;28;21114;-59
2022/07/20 13:51:40;;;;;;;22.63;18.90;;;;;;;;;;4915523;28;20430;-58
2022/07/20 13:54:07;;;;;;;21.67;18.73;;;;;;;;;;4915355;28;20505;-58
2022/07/20 13:56:33;;;;;;;21.00;18.83;;;;;;;;;;4910881;28;20466;-58
2022/07/20 13:58:59;;;;;;;21.60;19.17;;;;;;;;;;4935205;28;20569;-57
2022/07/20 14:01:26;;;;;;;21.73;18.40;;;;;;;;;;4941510;28;20529;-58
2022/07/20 14:03:52;;;;;;;20.53;18.30;;;;;;;;;;4948570;28;20467;-59
2022/07/20 14:06:18;;;;;;;20.67;18.70;;;;;;;;;;4937054;28;20430;-60
2022/07/20 14:08:44;;;;;;;21.63;19.70;;;;;;;;;;4936786;28;20442;-58
2022/07/20 14:14:14;;;;;;;20.93;18.27;;;;;;;;;;4924812;28;20437;-57
2022/07/20 14:16:42;;;;;;;18.67;16.93;;;;;;;;;;4920799;28;20994;-59
2022/07/20 14:19:08;;;;;;;20.57;18.40;;;;;;;;;;4925466;28;20557;-59
2022/07/20 14:21:35;;;;;;;21.27;17.77;;;;;;;;;;4946513;28;20446;-59
2022/07/20 14:24:01;;;;;;;20.40;18.37;;;;;;;;;;4931036;28;20450;-59
2022/07/20 14:26:27;;;;;;;20.77;18.97;;;;;;;;;;4936014;28;20478;-58
2022/07/20 14:29:12;;;;;;;21.00;19.17;;;;;;;;;;4942207;28;20445;-60
2022/07/20 14:31:39;;;;;;;21.93;19.80;;;;;;;;;;4940417;28;20442;-58
2022/07/20 14:34:21;;;;;;;20.70;18.50;;;;;;;;;;4934309;28;20443;-58
2022/07/20 14:36:51;;;;;;;18.43;16.73;;;;;;;;;;4945320;28;20447;-58
2022/07/20 14:39:19;;;;;;;18.83;16.87;;;;;;;;;;4935841;28;21093;-59
2022/07/20 14:41:45;;;;;;;19.23;17.33;;;;;;;;;;4952727;28;20426;-59
2022/07/20 14:44:29;;;;;;;19.67;17.57;;;;;;;;;;4946300;28;20435;-59
2022/07/20 14:47:04;;;;;;;19.63;17.07;;;;;;;;;;4941748;28;20482;-59
2022/07/20 14:49:30;;;;;;;19.37;17.47;;;;;;;;;;4925574;28;20828;-57
2022/07/20 14:51:56;;;;;;;19.33;17.60;;;;;;;;;;4941697;28;20447;-57
2022/07/20 14:54:22;;;;;;;19.10;17.33;;;;;;;;;;4935325;28;20509;-58
2022/07/20 14:56:48;;;;;;;19.43;17.53;;;;;;;;;;4940056;28;20238;-58
2022/07/20 14:59:16;;;;;;;21.60;17.27;;;;;;;;;;4928186;28;20856;-57
2022/07/20 15:01:42;;;;;;;21.20;18.83;;;;;;;;;;4938847;28;20199;-57
2022/07/20 15:04:23;;;;;;;20.00;18.00;;;;;;;;;;4936927;28;20525;-59
2022/07/20 15:06:54;;;;;;;24.40;17.80;;;;;;;;;;4936875;28;20457;-58
2022/07/20 15:09:26;;;;;;;20.20;18.40;;;;;;;;;;4921196;28;20485;-58